Time;durP1;ratioP1;P1;durP2;ratioP2;P2;SDS_P1;SDS_P2;PMS_P1;PMS_P2;Temp;Humidity;BMP_temperature;BMP_pressure;BME280_temperature;BME280_humidity;BME280_pressure;Samples;Min_cycle;Max_cycle;Signal;HPM_P1;HPM_P2
2022/05/23 00:00:39;;;;;;;4.03;1.80;;;21.00;96.70;;;;;;5058714;28;20371;-75
2022/05/23 00:03:08;;;;;;;4.20;2.05;;;20.90;96.70;;;;;;5055797;28;20059;-75
2022/05/23 00:05:35;;;;;;;4.75;2.33;;;20.90;96.70;;;;;;5051363;28;20382;-74
2022/05/23 00:08:04;;;;;;;4.05;2.03;;;20.90;96.70;;;;;;5052564;28;20128;-74
2022/05/23 00:10:32;;;;;;;2.97;1.90;;;20.70;96.70;;;;;;5058190;28;20387;-74
2022/05/23 00:13:00;;;;;;;2.83;1.80;;;20.70;96.70;;;;;;5052298;28;20048;-74
2022/05/23 00:15:28;;;;;;;6.78;2.42;;;20.60;96.70;;;;;;5048394;28;20128;-74
2022/05/23 00:17:56;;;;;;;5.07;1.70;;;20.60;96.70;;;;;;5059613;28;20050;-75
2022/05/23 00:20:26;;;;;;;4.47;2.22;;;20.50;96.70;;;;;;5053776;28;20047;-74
2022/05/23 00:22:54;;;;;;;4.13;2.17;;;20.60;96.70;;;;;;5058786;28;20049;-74
2022/05/23 00:25:22;;;;;;;4.65;2.00;;;20.60;96.70;;;;;;5050845;28;20063;-75
2022/05/23 00:27:50;;;;;;;5.20;2.17;;;20.40;96.70;;;;;;5054920;28;20042;-75
2022/05/23 00:30:21;;;;;;;4.60;2.65;;;20.30;96.70;;;;;;5052603;28;20554;-74
2022/05/23 00:35:40;;;;;;;3.53;2.17;;;20.40;96.70;;;;;;5053867;28;20056;-75
2022/05/23 00:38:09;;;;;;;3.20;1.67;;;20.40;96.70;;;;;;5042516;28;20067;-74
2022/05/23 00:40:42;;;;;;;3.35;1.88;;;20.50;96.70;;;;;;5056006;28;20041;-74
2022/05/23 00:43:15;;;;;;;6.50;2.55;;;20.50;96.70;;;;;;5053846;28;20437;-74
2022/05/23 00:45:47;;;;;;;5.22;1.92;;;20.50;96.70;;;;;;5056693;28;20045;-74
2022/05/23 00:48:17;;;;;;;4.53;2.25;;;20.60;96.70;;;;;;5046835;28;20056;-74
2022/05/23 00:50:50;;;;;;;6.18;2.28;;;20.60;96.70;;;;;;5052095;28;20036;-75
2022/05/23 00:53:24;;;;;;;4.30;2.08;;;20.50;96.70;;;;;;5052903;28;20141;-75
2022/05/23 00:55:52;;;;;;;4.35;2.10;;;20.40;96.70;;;;;;5049171;28;20730;-75
2022/05/23 00:58:23;;;;;;;5.45;2.30;;;20.30;96.70;;;;;;5050014;28;20040;-75
2022/05/23 01:00:55;;;;;;;5.90;2.65;;;20.30;96.70;;;;;;5055701;28;20048;-76
2022/05/23 01:03:23;;;;;;;3.35;2.30;;;20.40;96.70;;;;;;5028475;28;20060;-77
2022/05/23 01:05:54;;;;;;;3.63;1.88;;;20.30;96.70;;;;;;5046494;28;20103;-76
2022/05/23 01:08:23;;;;;;;7.22;2.92;;;20.30;96.70;;;;;;5055171;28;20045;-77
2022/05/23 01:10:52;;;;;;;3.30;2.45;;;20.30;96.70;;;;;;5057102;28;20622;-77
2022/05/23 01:13:19;;;;;;;5.45;2.70;;;20.30;96.70;;;;;;5060039;28;20048;-77
2022/05/23 01:15:49;;;;;;;4.00;2.47;;;20.20;96.70;;;;;;5042930;28;20402;-77
2022/05/23 01:18:17;;;;;;;5.93;2.55;;;20.20;96.70;;;;;;5043514;28;20147;-77
2022/05/23 01:20:47;;;;;;;3.40;2.13;;;20.10;96.70;;;;;;5053906;28;20045;-77
2022/05/23 01:23:25;;;;;;;3.38;2.08;;;20.00;96.70;;;;;;5056505;28;20105;-79
2022/05/23 01:26:15;;;;;;;3.33;2.08;;;20.00;96.70;;;;;;5041644;28;20725;-77
2022/05/23 01:28:47;;;;;;;4.70;2.05;;;20.00;96.70;;;;;;5057133;28;20677;-77
2022/05/23 01:31:31;;;;;;;4.45;2.33;;;19.90;96.70;;;;;;5056692;28;20053;-77
2022/05/23 01:34:09;;;;;;;5.43;2.20;;;19.80;96.70;;;;;;5056736;28;20528;-76
2022/05/23 01:36:47;;;;;;;2.92;2.15;;;19.90;96.70;;;;;;5045378;28;20131;-77
2022/05/23 01:39:16;;;;;;;4.20;2.05;;;20.00;96.70;;;;;;5057869;28;20510;-76
2022/05/23 01:41:45;;;;;;;3.05;2.25;;;20.00;96.70;;;;;;5054863;28;20041;-77
2022/05/23 01:44:14;;;;;;;4.45;2.47;;;19.90;96.70;;;;;;5056682;28;20053;-76
2022/05/23 01:46:52;;;;;;;3.67;2.17;;;20.00;96.70;;;;;;5053159;28;20057;-77
2022/05/23 01:49:27;;;;;;;6.15;2.00;;;20.00;96.70;;;;;;5053892;28;20041;-77
2022/05/23 01:51:55;;;;;;;5.13;1.70;;;20.00;96.70;;;;;;5040468;28;20048;-76
2022/05/23 01:54:30;;;;;;;4.03;2.17;;;19.80;96.70;;;;;;5062487;28;20103;-77
2022/05/23 01:57:03;;;;;;;5.07;2.20;;;19.80;96.70;;;;;;5060659;28;20044;-76
2022/05/23 02:02:24;;;;;;;5.80;2.30;;;19.90;96.70;;;;;;5055513;28;20056;-76
2022/05/23 02:04:54;;;;;;;7.03;2.50;;;19.80;96.70;;;;;;5055586;28;20474;-76
2022/05/23 02:07:22;;;;;;;4.47;2.13;;;19.80;96.70;;;;;;5045519;28;20079;-77
2022/05/23 02:09:50;;;;;;;3.17;2.30;;;19.80;96.70;;;;;;5060096;28;20460;-76
2022/05/23 02:12:23;;;;;;;3.47;2.22;;;19.80;96.70;;;;;;5062415;28;20115;-76
2022/05/23 02:14:54;;;;;;;2.90;2.30;;;19.60;96.70;;;;;;5039774;28;20044;-76
2022/05/23 02:17:40;;;;;;;4.82;2.60;;;19.60;96.70;;;;;;5060401;28;20097;-77
2022/05/23 02:20:10;;;;;;;3.50;2.05;;;19.70;96.70;;;;;;5036323;28;20147;-77
2022/05/23 02:22:38;;;;;;;4.55;2.00;;;19.70;96.70;;;;;;5061008;28;20119;-77
2022/05/23 02:25:35;;;;;;;5.03;2.30;;;19.50;96.70;;;;;;4978255;28;20066;-76
2022/05/23 02:28:25;;;;;;;4.53;2.10;;;19.60;96.70;;;;;;4999500;28;20156;-76
2022/05/23 02:30:53;;;;;;;5.35;2.28;;;19.60;96.70;;;;;;4981214;28;20511;-76
2022/05/23 02:33:47;;;;;;;3.65;2.38;;;19.50;96.70;;;;;;4987073;28;20050;-76
2022/05/23 02:36:32;;;;;;;4.18;2.70;;;19.40;96.70;;;;;;4978759;28;20046;-77
2022/05/23 02:39:03;;;;;;;3.10;2.08;;;19.50;96.70;;;;;;4982880;28;20146;-76
2022/05/23 02:41:32;;;;;;;6.13;2.42;;;19.40;96.70;;;;;;4979895;28;20729;-77
2022/05/23 02:44:03;;;;;;;5.50;2.10;;;19.40;96.70;;;;;;4984532;28;20050;-77
2022/05/23 02:46:32;;;;;;;5.28;2.33;;;19.40;96.70;;;;;;4998070;28;20057;-74
2022/05/23 02:49:06;;;;;;;4.47;2.03;;;19.30;96.70;;;;;;4983989;28;20050;-76
2022/05/23 02:51:36;;;;;;;6.63;2.53;;;19.20;96.70;;;;;;4976933;28;20145;-76
2022/05/23 02:54:10;;;;;;;4.32;2.00;;;19.10;96.70;;;;;;4979827;28;20087;-77
2022/05/23 02:56:40;;;;;;;5.82;2.45;;;19.10;96.70;;;;;;4983254;28;20719;-77
2022/05/23 02:59:10;;;;;;;6.43;2.58;;;19.00;96.70;;;;;;4992085;28;20052;-77
2022/05/23 03:03:01;;;;;;;5.43;2.22;;;19.00;96.70;;;;;;5009920;28;20136;-76
2022/05/23 03:04:37;;;;;;;3.85;2.53;;;19.10;96.70;;;;;;5046704;28;20482;-76
2022/05/23 03:07:05;;;;;;;3.28;2.13;;;19.20;96.70;;;;;;5037498;28;20049;-76
2022/05/23 03:09:33;;;;;;;3.13;2.10;;;19.20;96.70;;;;;;5055952;28;20048;-76
2022/05/23 03:12:02;;;;;;;3.88;2.42;;;19.20;96.70;;;;;;5051223;28;20055;-74
2022/05/23 03:14:32;;;;;;;9.48;2.88;;;19.10;96.70;;;;;;5054688;28;20098;-74
2022/05/23 03:17:01;;;;;;;4.60;2.30;;;19.00;96.70;;;;;;5052059;28;20144;-73
2022/05/23 03:19:34;;;;;;;4.05;2.45;;;19.00;96.70;;;;;;5049571;28;20060;-74
2022/05/23 03:27:38;;;;;;;3.17;2.03;;;19.20;96.70;;;;;;5050903;28;20052;-73
2022/05/23 03:30:17;;;;;;;3.55;2.30;;;19.20;96.70;;;;;;5044369;28;20048;-74
2022/05/23 03:32:52;;;;;;;6.32;2.22;;;19.10;96.70;;;;;;5051305;28;20048;-75
2022/05/23 03:35:32;;;;;;;3.13;2.25;;;19.20;96.70;;;;;;5046713;28;20053;-74
2022/05/23 03:38:03;;;;;;;6.05;2.28;;;19.10;96.70;;;;;;5050345;28;20083;-74
2022/05/23 03:40:37;;;;;;;7.82;2.88;;;19.00;96.70;;;;;;5052036;28;20118;-73
2022/05/23 03:43:06;;;;;;;4.05;2.17;;;18.90;96.70;;;;;;5052207;28;20112;-73
2022/05/23 03:45:37;;;;;;;4.53;2.40;;;18.90;96.70;;;;;;5036012;28;20052;-74
2022/05/23 03:48:10;;;;;;;3.80;2.67;;;18.80;96.70;;;;;;5053123;28;20060;-74
2022/05/23 03:50:38;;;;;;;4.30;2.47;;;18.80;96.70;;;;;;5047882;28;20135;-74
2022/05/23 03:53:07;;;;;;;3.88;2.40;;;18.70;96.70;;;;;;5047734;28;20064;-74
2022/05/23 03:55:53;;;;;;;;;;;18.60;96.70;;;;;;5051430;28;20049;-74
2022/05/23 03:58:26;;;;;;;3.92;2.45;;;18.70;96.70;;;;;;5050973;28;20025;-74
2022/05/23 04:01:22;;;;;;;7.85;2.42;;;18.70;96.70;;;;;;5048641;28;20051;-74
2022/05/23 04:04:11;;;;;;;3.97;2.70;;;18.60;96.70;;;;;;5048789;28;20053;-74
2022/05/23 04:06:44;;;;;;;3.42;2.45;;;18.50;96.70;;;;;;5052609;28;20083;-74
2022/05/23 04:09:13;;;;;;;5.82;2.15;;;18.60;96.70;;;;;;5049292;28;20465;-74
2022/05/23 04:11:47;;;;;;;4.43;2.20;;;18.80;96.70;;;;;;5053549;28;20094;-74
2022/05/23 04:14:18;;;;;;;3.88;1.90;;;18.70;96.70;;;;;;5033152;28;20204;-74
2022/05/23 04:16:48;;;;;;;5.85;2.88;;;18.60;96.70;;;;;;5038969;28;20102;-74
2022/05/23 04:19:17;;;;;;;3.92;2.28;;;18.70;96.70;;;;;;5049505;28;20056;-74
2022/05/23 04:22:05;;;;;;;6.05;2.38;;;18.90;96.70;;;;;;5050854;28;20099;-74
2022/05/23 04:24:41;;;;;;;3.78;2.30;;;18.80;96.70;;;;;;5051325;28;20044;-75
2022/05/23 04:27:09;;;;;;;3.55;2.10;;;18.80;96.70;;;;;;5037556;28;20402;-74
2022/05/23 04:29:42;;;;;;;5.53;2.00;;;18.70;96.70;;;;;;5055320;28;20439;-75
2022/05/23 04:35:14;;;;;;;3.60;2.03;;;18.60;96.70;;;;;;5049158;28;20045;-75
2022/05/23 04:37:48;;;;;;;5.05;2.20;;;18.50;96.70;;;;;;5050179;28;20059;-76
2022/05/23 04:40:22;;;;;;;3.13;1.95;;;18.60;96.70;;;;;;5049286;28;20048;-75
2022/05/23 04:42:50;;;;;;;2.92;2.20;;;18.60;96.70;;;;;;5047506;28;20549;-75
2022/05/23 04:45:19;;;;;;;4.63;2.45;;;18.70;96.70;;;;;;5033972;28;20054;-75
2022/05/23 04:50:55;;;;;;;6.07;2.35;;;18.60;96.70;;;;;;5055187;28;20593;-73
2022/05/23 04:53:26;;;;;;;5.47;2.50;;;18.60;96.70;;;;;;5049893;28;20048;-73
2022/05/23 04:56:02;;;;;;;4.28;2.50;;;18.60;96.70;;;;;;5049332;28;20049;-73
2022/05/23 04:58:31;;;;;;;5.82;2.65;;;18.70;96.70;;;;;;5049922;28;20056;-74
2022/05/23 05:01:02;;;;;;;7.45;2.75;;;18.70;96.70;;;;;;5053279;28;20041;-73
2022/05/23 05:03:32;;;;;;;5.72;2.60;;;18.60;96.70;;;;;;5050354;28;20049;-73
2022/05/23 05:06:00;;;;;;;8.13;2.78;;;18.70;96.70;;;;;;5049721;28;20048;-74
2022/05/23 05:08:29;;;;;;;2.92;2.33;;;18.70;96.70;;;;;;5049256;28;20114;-74
2022/05/23 05:10:57;;;;;;;5.07;2.50;;;18.70;96.70;;;;;;5050706;28;20079;-74
2022/05/23 05:13:32;;;;;;;3.78;2.20;;;18.90;96.70;;;;;;5053850;28;20041;-74
2022/05/23 05:16:02;;;;;;;6.60;3.28;;;18.90;96.70;;;;;;5054231;28;20625;-74
2022/05/23 05:18:35;;;;;;;7.90;3.97;;;18.90;96.70;;;;;;5041320;28;20045;-75
2022/05/23 05:21:38;;;;;;;7.65;4.47;;;19.00;96.70;;;;;;5039161;28;20049;-74
2022/05/23 05:24:24;;;;;;;6.72;4.40;;;19.10;96.70;;;;;;5051513;28;20045;-74
2022/05/23 05:27:15;;;;;;;8.38;4.13;;;19.00;96.70;;;;;;5047949;28;20045;-74
2022/05/23 05:29:44;;;;;;;6.28;3.95;;;19.10;96.70;;;;;;5049574;28;20048;-75
2022/05/23 05:32:17;;;;;;;6.20;3.40;;;19.10;96.70;;;;;;5047741;28;20495;-74
2022/05/23 05:34:51;;;;;;;8.45;3.75;;;19.20;96.70;;;;;;5052904;28;20079;-75
2022/05/23 05:37:22;;;;;;;5.80;3.65;;;19.20;96.70;;;;;;5055712;28;20045;-74
2022/05/23 05:39:55;;;;;;;6.13;3.47;;;19.20;96.70;;;;;;5053913;28;20060;-74
2022/05/23 05:42:27;;;;;;;6.55;3.80;;;19.40;96.70;;;;;;5052979;28;20156;-74
2022/05/23 05:45:01;;;;;;;6.10;3.65;;;19.50;96.70;;;;;;5052059;28;20501;-74
2022/05/23 05:47:32;;;;;;;8.70;4.13;;;19.50;96.70;;;;;;5047707;28;20053;-74
2022/05/23 05:50:09;;;;;;;6.32;3.30;;;19.30;96.70;;;;;;5052050;28;20040;-74
2022/05/23 05:53:08;;;;;;;5.25;2.95;;;19.30;96.70;;;;;;5041298;28;20048;-74
2022/05/23 05:55:40;;;;;;;9.23;3.63;;;19.30;96.70;;;;;;5050329;28;20049;-75
2022/05/23 05:58:18;;;;;;;7.20;3.58;;;19.30;96.70;;;;;;5058950;28;20139;-74
2022/05/23 06:00:52;;;;;;;5.05;3.28;;;19.30;96.70;;;;;;5058855;28;20664;-74
2022/05/23 06:03:24;;;;;;;6.95;3.40;;;19.40;96.70;;;;;;5057057;28;20165;-76
2022/05/23 06:11:46;;;;;;;6.38;3.40;;;19.60;96.70;;;;;;5052557;28;20051;-75
2022/05/23 06:14:18;;;;;;;7.13;4.15;;;19.60;96.70;;;;;;5054696;28;20048;-76
2022/05/23 06:16:50;;;;;;;7.65;4.38;;;19.50;96.70;;;;;;5059819;28;20434;-75
2022/05/23 06:19:39;;;;;;;12.88;6.05;;;19.50;96.70;;;;;;5039396;28;20059;-77
2022/05/23 06:22:16;;;;;;;9.38;5.18;;;19.30;96.70;;;;;;5046291;28;20527;-74
2022/05/23 06:24:57;;;;;;;7.72;4.72;;;19.40;96.70;;;;;;5055535;28;20041;-75
2022/05/23 06:27:26;;;;;;;11.20;5.60;;;19.50;96.70;;;;;;5061752;28;20051;-76
2022/05/23 06:30:14;;;;;;;8.13;5.07;;;19.60;96.70;;;;;;5044238;28;20118;-77
2022/05/23 06:33:01;;;;;;;8.40;5.15;;;19.70;96.70;;;;;;5054655;28;20055;-76
2022/05/23 06:35:39;;;;;;;11.50;5.43;;;19.90;96.70;;;;;;5043437;28;20136;-77
2022/05/23 06:38:10;;;;;;;10.70;5.03;;;20.10;96.70;;;;;;5056291;28;20040;-75
2022/05/23 06:40:50;;;;;;;9.25;4.28;;;20.10;96.70;;;;;;5060684;28;20052;-76
2022/05/23 06:43:38;;;;;;;8.60;4.40;;;20.20;96.70;;;;;;5058880;28;20051;-73
2022/05/23 06:46:21;;;;;;;7.65;4.55;;;20.20;96.70;;;;;;5052433;28;20052;-72
2022/05/23 06:48:50;;;;;;;11.18;4.70;;;20.20;96.70;;;;;;5052049;28;20059;-74
2022/05/23 06:51:39;;;;;;;8.88;4.45;;;20.20;96.70;;;;;;5052074;28;20131;-74
2022/05/23 06:54:10;;;;;;;6.80;4.10;;;20.30;96.70;;;;;;5037522;28;20052;-74
2022/05/23 06:56:44;;;;;;;7.15;4.22;;;20.40;96.70;;;;;;5058144;28;20532;-74
2022/05/23 06:59:20;;;;;;;8.43;4.32;;;20.50;96.70;;;;;;5056336;28;20473;-74
2022/05/23 07:01:49;;;;;;;7.78;3.53;;;20.60;96.70;;;;;;5054118;28;20792;-74
2022/05/23 07:12:19;;;;;;;8.00;4.43;;;20.70;96.70;;;;;;5051585;28;20037;-75
2022/05/23 07:13:13;;;;;;;8.07;3.67;;;20.80;96.70;;;;;;5054211;28;20040;-74
2022/05/23 07:15:47;;;;;;;7.70;3.50;;;21.00;96.70;;;;;;5055565;28;20045;-74
2022/05/23 07:18:16;;;;;;;5.88;3.65;;;21.00;96.70;;;;;;5037977;28;20048;-73
2022/05/23 07:20:46;;;;;;;9.10;3.92;;;21.10;96.70;;;;;;5054600;28;20040;-73
2022/05/23 07:23:40;;;;;;;10.65;4.03;;;21.20;96.70;;;;;;5050308;28;20048;-73
2022/05/23 07:26:25;;;;;;;8.98;3.92;;;21.30;96.70;;;;;;5052872;28;20534;-75
2022/05/23 07:28:56;;;;;;;9.15;4.03;;;21.30;96.70;;;;;;5049949;28;20112;-75
2022/05/23 07:31:29;;;;;;;6.63;3.60;;;21.40;96.70;;;;;;5049327;28;20127;-74
2022/05/23 07:33:59;;;;;;;6.97;3.80;;;21.30;96.70;;;;;;5036683;28;20053;-74
2022/05/23 07:36:27;;;;;;;5.43;3.60;;;21.40;96.70;;;;;;5040463;28;20080;-74
2022/05/23 07:38:59;;;;;;;7.93;3.45;;;21.50;96.70;;;;;;5052910;28;20592;-73
2022/05/23 07:41:44;;;;;;;7.20;3.78;;;21.40;96.70;;;;;;5037041;28;20049;-73
2022/05/23 07:44:14;;;;;;;7.03;3.13;;;21.50;96.70;;;;;;5054279;28;20070;-73
2022/05/23 07:46:43;;;;;;;4.57;2.92;;;21.60;96.70;;;;;;5055789;28;20052;-72
2022/05/23 07:49:14;;;;;;;4.63;3.28;;;21.60;96.70;;;;;;5048614;28;20060;-73
2022/05/23 07:51:56;;;;;;;7.63;3.85;;;21.60;96.70;;;;;;5054818;28;20041;-73
2022/05/23 08:00:33;;;;;;;7.00;3.30;;;21.80;96.70;;;;;;5054769;28;20890;-72
2022/05/23 08:03:23;;;;;;;6.18;3.08;;;21.80;96.70;;;;;;5057532;28;20053;-73
2022/05/23 08:06:10;;;;;;;6.28;2.72;;;21.80;96.70;;;;;;5053301;28;20471;-74
2022/05/23 08:08:39;;;;;;;3.72;2.88;;;21.90;96.70;;;;;;5036647;28;20049;-74
2022/05/23 08:11:08;;;;;;;6.78;3.38;;;22.00;96.70;;;;;;5034723;28;20620;-76
2022/05/23 08:13:56;;;;;;;8.60;3.00;;;22.10;96.70;;;;;;5056555;28;20489;-76
2022/05/23 08:16:26;;;;;;;6.38;2.83;;;22.20;96.70;;;;;;5054663;28;20049;-77
2022/05/23 08:18:56;;;;;;;6.55;3.17;;;22.30;96.70;;;;;;5032537;28;20056;-76
2022/05/23 08:21:24;;;;;;;7.97;3.80;;;22.40;96.70;;;;;;5034455;28;20063;-75
2022/05/23 08:23:52;;;;;;;8.70;3.90;;;22.50;96.70;;;;;;5053882;28;20506;-76
2022/05/23 08:26:27;;;;;;;11.32;4.43;;;22.50;96.70;;;;;;5035544;28;20731;-75
2022/05/23 08:28:57;;;;;;;10.50;4.97;;;22.60;96.70;;;;;;5033817;28;20052;-75
2022/05/23 08:31:31;;;;;;;11.47;5.07;;;22.70;96.70;;;;;;5038020;28;20120;-74
2022/05/23 08:34:08;;;;;;;10.00;5.43;;;22.70;96.70;;;;;;5056241;28;20129;-75
2022/05/23 08:36:36;;;;;;;12.95;5.40;;;22.70;96.70;;;;;;5049966;28;20045;-75
2022/05/23 08:39:06;;;;;;;12.52;5.40;;;22.90;96.70;;;;;;5050017;28;20045;-75
2022/05/23 08:42:02;;;;;;;11.10;5.85;;;23.00;96.70;;;;;;5057856;28;20048;-75
2022/05/23 08:45:11;;;;;;;12.27;5.35;;;23.20;96.70;;;;;;5041006;28;20530;-74
2022/05/23 08:47:49;;;;;;;11.45;5.03;;;23.30;96.70;;;;;;5053090;28;20121;-75
2022/05/23 08:50:24;;;;;;;15.10;5.65;;;23.40;96.70;;;;;;5031619;28;20148;-74
2022/05/23 08:52:58;;;;;;;10.90;4.65;;;23.40;96.70;;;;;;5032361;28;20659;-74
2022/05/23 08:56:06;;;;;;;12.57;4.50;;;23.40;96.70;;;;;;5032186;28;20080;-75
2022/05/23 08:58:54;;;;;;;9.52;4.05;;;23.40;96.70;;;;;;5019054;28;20072;-75
2022/05/23 09:01:30;;;;;;;12.70;4.38;;;23.50;96.70;;;;;;5020876;28;20048;-76
2022/05/23 09:04:08;;;;;;;5.70;3.40;;;23.50;96.70;;;;;;5000739;28;20415;-75
2022/05/23 09:06:42;;;;;;;12.32;3.75;;;23.70;96.70;;;;;;5019051;28;20045;-75
2022/05/23 09:09:13;;;;;;;6.88;3.20;;;23.80;96.70;;;;;;4998914;28;20044;-75
2022/05/23 09:11:43;;;;;;;6.22;3.13;;;23.90;96.70;;;;;;5027138;28;20115;-75
2022/05/23 09:14:14;;;;;;;8.68;2.92;;;23.90;96.70;;;;;;5030842;28;20037;-76
2022/05/23 09:16:46;;;;;;;6.85;3.20;;;23.90;96.70;;;;;;5031911;28;20053;-75
2022/05/23 09:19:19;;;;;;;6.35;3.22;;;23.90;96.70;;;;;;5017936;28;20049;-77
2022/05/23 09:24:37;;;;;;;;;;;24.20;96.70;;;;;;5031471;28;20144;-76
2022/05/23 09:27:15;;;;;;;8.52;3.53;;;24.30;96.70;;;;;;5029736;28;19925;-76
2022/05/23 09:29:49;;;;;;;9.90;3.78;;;24.40;96.70;;;;;;5036857;28;20559;-76
2022/05/23 09:32:22;;;;;;;6.18;3.45;;;24.30;96.70;;;;;;5055979;28;20053;-76
2022/05/23 09:34:54;;;;;;;7.03;3.80;;;24.30;96.70;;;;;;5058806;28;20489;-75
2022/05/23 09:37:28;;;;;;;7.20;2.42;;;24.40;96.70;;;;;;5056135;28;20666;-75
2022/05/23 09:39:58;;;;;;;6.47;2.70;;;24.60;96.70;;;;;;5056766;28;20513;-75
2022/05/23 09:48:14;;;;;;;9.57;2.63;;;24.70;96.70;;;;;;5056156;28;20055;-75
2022/05/23 09:50:45;;;;;;;4.63;2.47;;;24.80;96.70;;;;;;5055782;28;20060;-75
2022/05/23 09:53:25;;;;;;;4.47;2.80;;;24.90;96.70;;;;;;5051985;28;20036;-75
2022/05/23 09:56:37;;;;;;;5.43;2.40;;;24.90;96.70;;;;;;5052800;28;20052;-74
2022/05/23 09:59:10;;;;;;;5.93;2.53;;;25.00;96.70;;;;;;5055389;28;20544;-75
2022/05/23 10:01:42;;;;;;;6.53;2.50;;;25.00;96.70;;;;;;5055333;28;20047;-75
2022/05/23 10:04:17;;;;;;;4.45;2.47;;;25.10;96.70;;;;;;5056668;28;20508;-76
2022/05/23 10:06:51;;;;;;;6.82;2.30;;;25.20;96.70;;;;;;5070731;28;20061;-76
2022/05/23 10:09:27;;;;;;;4.28;2.10;;;25.30;96.70;;;;;;5056183;28;20843;-76
2022/05/23 10:12:21;;;;;;;4.82;2.40;;;25.40;96.70;;;;;;5056815;28;20169;-76
2022/05/23 10:14:51;;;;;;;4.27;2.60;;;25.60;96.70;;;;;;5055930;28;20136;-75
2022/05/23 10:17:39;;;;;;;3.70;2.22;;;25.70;96.70;;;;;;5040643;28;20430;-73
2022/05/23 10:20:28;;;;;;;3.97;2.55;;;25.60;96.70;;;;;;5034570;28;20103;-73
2022/05/23 10:23:00;;;;;;;4.70;2.60;;;25.70;96.70;;;;;;5053173;28;20041;-74
2022/05/23 10:25:35;;;;;;;4.30;2.33;;;25.80;96.70;;;;;;5052618;28;20041;-74
2022/05/23 10:28:10;;;;;;;3.70;2.15;;;26.00;96.70;;;;;;5051231;28;20322;-73
2022/05/23 10:30:43;;;;;;;4.90;2.10;;;26.10;96.70;;;;;;5051992;28;20052;-74
2022/05/23 10:33:14;;;;;;;4.82;2.47;;;26.20;96.70;;;;;;5051167;28;20072;-75
2022/05/23 10:35:59;;;;;;;6.50;2.58;;;26.30;96.70;;;;;;5055612;28;20392;-74
2022/05/23 10:44:20;;;;;;;3.08;2.30;;;26.80;96.70;;;;;;5053591;28;20113;-73
2022/05/23 10:46:57;;;;;;;6.03;2.78;;;26.90;96.70;;;;;;5058780;28;20044;-73
2022/05/23 10:49:53;;;;;;;3.90;2.40;;;27.10;96.70;;;;;;5048132;28;20528;-73
2022/05/23 10:52:29;;;;;;;4.75;2.88;;;27.30;96.70;;;;;;5049043;28;20052;-73
2022/05/23 10:55:06;;;;;;;6.35;2.42;;;27.20;96.70;;;;;;5035461;28;20041;-73
2022/05/23 10:57:52;;;;;;;5.00;2.40;;;27.20;96.70;;;;;;5055416;28;20041;-74
2022/05/23 11:00:24;;;;;;;5.03;2.70;;;27.40;96.70;;;;;;5052315;28;20509;-73
2022/05/23 11:03:00;;;;;;;6.90;2.75;;;27.50;96.70;;;;;;5057800;28;20047;-72
2022/05/23 11:05:35;;;;;;;6.28;2.33;;;27.30;96.70;;;;;;5054413;28;20443;-74
2022/05/23 11:08:32;;;;;;;4.85;2.33;;;27.40;96.70;;;;;;5052315;28;20048;-74
2022/05/23 11:11:10;;;;;;;6.35;2.47;;;27.60;96.70;;;;;;5056088;28;20414;-74
2022/05/23 11:13:58;;;;;;;6.25;2.70;;;27.60;96.70;;;;;;5039655;28;20616;-74
2022/05/23 11:16:32;;;;;;;5.10;2.67;;;27.60;96.70;;;;;;5061008;28;20062;-74
2022/05/23 11:19:14;;;;;;;5.72;2.75;;;27.60;96.70;;;;;;5056407;28;20040;-73
2022/05/23 11:21:52;;;;;;;5.43;2.25;;;27.80;96.70;;;;;;5050269;28;20124;-73
2022/05/23 11:24:28;;;;;;;7.65;2.45;;;28.00;96.70;;;;;;5039432;28;20110;-73
2022/05/23 11:33:41;;;;;;;3.55;2.30;;;28.00;96.70;;;;;;5055925;28;20041;-74
2022/05/23 11:35:30;;;;;;;;;;;28.30;96.70;;;;;;5057199;28;20426;-73
2022/05/23 11:38:01;;;;;;;6.30;2.60;;;28.30;96.70;;;;;;5054976;28;20007;-74
2022/05/23 11:41:00;;;;;;;5.10;2.83;;;28.50;96.70;;;;;;5057327;28;20865;-73
2022/05/23 11:43:28;;;;;;;7.03;2.72;;;28.60;96.70;;;;;;5051553;28;20040;-74
2022/05/23 11:46:10;;;;;;;4.93;2.60;;;28.60;96.70;;;;;;5038711;28;20044;-73
2022/05/23 11:48:58;;;;;;;4.47;2.28;;;28.80;96.70;;;;;;5049272;28;20057;-73
2022/05/23 11:51:37;;;;;;;4.93;2.53;;;28.80;96.70;;;;;;5047237;28;20049;-73
2022/05/23 11:54:09;;;;;;;8.77;2.55;;;29.00;96.70;;;;;;5050867;28;20506;-74
2022/05/23 11:57:15;;;;;;;4.03;2.20;;;29.00;96.70;;;;;;5054371;28;20137;-74
2022/05/23 12:00:21;;;;;;;5.13;2.38;;;28.90;96.70;;;;;;5053148;28;20052;-74
2022/05/23 12:03:05;;;;;;;4.15;1.90;;;29.00;96.70;;;;;;5051576;28;20051;-74
2022/05/23 12:05:35;;;;;;;6.25;2.67;;;29.00;96.70;;;;;;5040091;28;20072;-74
2022/05/23 12:08:21;;;;;;;5.28;2.40;;;29.00;96.70;;;;;;5052481;28;20136;-74
2022/05/23 12:10:58;;;;;;;4.20;2.15;;;29.00;96.70;;;;;;5047820;28;20055;-74
2022/05/23 12:13:38;;;;;;;5.82;2.30;;;29.10;96.70;;;;;;5057026;28;20043;-73
2022/05/23 12:16:39;;;;;;;6.30;2.22;;;29.20;96.70;;;;;;5047746;28;20367;-74
2022/05/23 12:19:27;;;;;;;4.93;2.30;;;29.40;96.70;;;;;;5036792;28;20045;-75
2022/05/23 12:22:16;;;;;;;4.93;2.28;;;29.40;96.70;;;;;;5039275;28;20052;-75
2022/05/23 12:25:18;;;;;;;4.88;2.35;;;29.50;96.70;;;;;;5054022;28;20044;-74
2022/05/23 12:28:14;;;;;;;5.80;2.28;;;29.50;96.70;;;;;;5051406;28;20063;-74
2022/05/23 12:31:00;;;;;;;5.50;2.13;;;29.70;96.70;;;;;;5057435;28;20045;-72
2022/05/23 12:33:28;;;;;;;4.67;2.20;;;29.90;96.70;;;;;;5050768;28;20052;-72
2022/05/23 12:36:08;;;;;;;5.93;2.28;;;30.00;96.70;;;;;;5049756;28;20055;-73
2022/05/23 12:39:01;;;;;;;5.97;2.20;;;30.00;95.50;;;;;;5055587;28;20037;-73
2022/05/23 12:41:51;;;;;;;3.28;2.00;;;30.00;95.60;;;;;;5023809;28;20063;-73
2022/05/23 12:44:44;;;;;;;3.53;2.28;;;29.90;94.50;;;;;;5050711;28;20118;-73
2022/05/23 12:47:33;;;;;;;4.70;1.80;;;30.00;95.50;;;;;;5050093;28;20045;-73
2022/05/23 12:50:12;;;;;;;4.47;1.85;;;30.10;93.90;;;;;;5053961;28;20512;-73
2022/05/23 12:53:08;;;;;;;3.05;1.55;;;30.10;93.00;;;;;;5051048;28;20127;-73
2022/05/23 12:55:48;;;;;;;3.78;1.55;;;30.10;91.90;;;;;;5035035;28;20053;-73
2022/05/23 12:58:38;;;;;;;4.10;1.80;;;30.30;90.30;;;;;;5052405;28;20064;-73
2022/05/23 13:01:09;;;;;;;4.75;1.52;;;30.40;92.40;;;;;;5045720;28;20172;-74
2022/05/23 13:03:49;;;;;;;2.80;1.40;;;30.50;87.90;;;;;;5049462;28;20386;-73
2022/05/23 13:06:22;;;;;;;6.25;1.50;;;30.50;88.10;;;;;;5055203;28;20050;-74
2022/05/23 13:08:53;;;;;;;2.75;1.70;;;30.60;88.90;;;;;;5052816;28;20512;-74
2022/05/23 13:11:25;;;;;;;4.85;1.60;;;30.80;89.50;;;;;;5053617;28;20036;-74
2022/05/23 13:13:58;;;;;;;4.13;1.38;;;31.10;88.30;;;;;;5050591;28;20055;-74
2022/05/23 13:16:29;;;;;;;3.40;1.27;;;31.20;85.10;;;;;;5051059;28;20041;-73
2022/05/23 13:22:12;;;;;;;5.72;1.33;;;31.10;87.20;;;;;;5049605;28;20063;-74
2022/05/23 13:24:53;;;;;;;3.22;1.38;;;31.30;87.00;;;;;;5048411;28;20443;-74
2022/05/23 13:27:26;;;;;;;3.90;1.60;;;31.40;87.00;;;;;;5060159;28;20052;-74
2022/05/23 13:29:56;;;;;;;2.33;1.17;;;31.60;84.90;;;;;;5055036;28;20698;-75
2022/05/23 13:32:26;;;;;;;2.42;1.33;;;31.60;85.10;;;;;;5050644;28;20342;-75
2022/05/23 13:34:59;;;;;;;2.35;1.27;;;31.60;83.20;;;;;;5050128;28;20045;-75
2022/05/23 13:37:30;;;;;;;5.28;1.52;;;31.60;85.90;;;;;;5051988;28;21417;-75
2022/05/23 13:40:07;;;;;;;2.83;1.10;;;31.80;82.20;;;;;;5052119;28;20110;-75
2022/05/23 13:42:36;;;;;;;3.83;1.25;;;31.90;80.90;;;;;;5055441;28;20045;-76
2022/05/23 13:45:11;;;;;;;4.05;1.33;;;32.10;79.50;;;;;;5053339;28;20138;-75
2022/05/23 13:47:43;;;;;;;2.78;1.70;;;32.20;81.40;;;;;;5053098;28;20060;-73
2022/05/23 13:50:18;;;;;;;3.08;1.80;;;32.30;83.90;;;;;;5053293;28;20582;-74
2022/05/23 13:52:51;;;;;;;5.50;1.40;;;32.40;83.80;;;;;;5050718;28;20399;-73
2022/05/23 13:55:25;;;;;;;2.70;1.40;;;32.50;81.40;;;;;;5055335;28;20067;-75
2022/05/23 13:57:57;;;;;;;4.57;1.90;;;32.70;81.90;;;;;;5031729;28;20053;-73
2022/05/23 14:00:31;;;;;;;6.55;2.05;;;32.70;84.30;;;;;;5050958;28;20060;-75
2022/05/23 14:03:03;;;;;;;2.88;1.25;;;32.90;81.00;;;;;;5047144;28;20398;-74
2022/05/23 14:05:36;;;;;;;5.07;1.10;;;33.10;78.10;;;;;;5036067;28;20149;-75
2022/05/23 14:08:05;;;;;;;2.60;0.95;;;33.50;78.60;;;;;;5046782;28;20064;-74
2022/05/23 14:10:40;;;;;;;2.30;0.80;;;33.60;76.70;;;;;;5053264;28;20071;-75
2022/05/23 14:13:10;;;;;;;3.15;1.02;;;33.50;75.40;;;;;;5050496;28;20040;-75
2022/05/23 14:15:44;;;;;;;2.53;1.10;;;33.70;75.90;;;;;;5035454;28;20052;-75
2022/05/23 14:18:30;;;;;;;3.83;1.08;;;34.10;76.60;;;;;;5056606;28;20449;-75
2022/05/23 14:21:00;;;;;;;3.22;1.08;;;34.00;76.20;;;;;;5053633;28;20040;-74
2022/05/23 14:23:31;;;;;;;4.00;1.88;;;34.30;77.10;;;;;;5055969;28;20049;-75
2022/05/23 14:26:10;;;;;;;6.07;1.95;;;34.60;77.00;;;;;;5053416;28;20048;-75
2022/05/23 14:28:53;;;;;;;9.38;1.67;;;34.60;79.80;;;;;;5059621;28;20045;-75
2022/05/23 14:31:37;;;;;;;4.47;2.08;;;34.30;81.50;;;;;;5052307;28;20036;-75